Terminal Aerodrome Forecast
Issued by NWS Central Illinois

Home | Current Version | Previous Version | Text Only | Print | Product List | Glossary On
Versions: 1 2 3 4 5 6 7 8 9 10 11 12 13 14 15 16 17 18 19 20 21 22 23 24 25 26 27 28 29 30 31 32 33 34
202
FTUS43 KILX 190538
TAFPIA
TAF
KPIA 190538Z 1906/2006 00000KT 3SM BR SCT200
     FM191000 16004KT 3SM BR BKN035
     FM191600 12004KT P6SM BKN030
     FM191800 10005KT 3SM -SHRA BR OVC015
     FM200000 08006KT 2SM -SHRA BR OVC003=

USA.gov is the U.S. government's official web portal to all federal, state and local government web resources and services.